createdAt,value
2023-02-09T00:00:06.497Z,102092.14
2023-02-09T00:02:42.316Z,102088.02
2023-02-09T00:05:11.437Z,102079.85
2023-02-09T00:07:41.048Z,102066.30
2023-02-09T00:10:10.123Z,102057.64
2023-02-09T00:12:57.622Z,102049.70
2023-02-09T00:15:26.356Z,102046.64
2023-02-09T00:17:54.898Z,102041.80
2023-02-09T00:20:24.019Z,102035.95
2023-02-09T00:22:52.967Z,102033.54
2023-02-09T00:25:22.608Z,102024.86
2023-02-09T00:27:51.019Z,102018.11
2023-02-09T00:30:20.036Z,102011.70
2023-02-09T00:32:49.006Z,102005.45
2023-02-09T00:35:18.136Z,102004.13
2023-02-09T00:37:47.796Z,101994.41
2023-02-09T00:40:16.957Z,101990.41
2023-02-09T00:42:45.567Z,101982.61
2023-02-09T00:45:14.562Z,101979.36
2023-02-09T00:47:43.686Z,101977.66
2023-02-09T00:50:12.558Z,101976.50
2023-02-09T00:52:41.456Z,101971.49
2023-02-09T00:55:10.652Z,101966.30
2023-02-09T00:57:41.537Z,101961.33
2023-02-09T01:00:11.704Z,101956.84
2023-02-09T01:02:40.629Z,101951.87
2023-02-09T01:05:09.424Z,101946.70
2023-02-09T01:07:37.990Z,101945.67
2023-02-09T01:10:07.258Z,101939.11
2023-02-09T01:12:36.571Z,101932.59
2023-02-09T01:15:07.170Z,101921.13
2023-02-09T01:17:39.230Z,101920.35
2023-02-09T01:20:09.062Z,101913.25
2023-02-09T01:22:37.990Z,101913.98
2023-02-09T01:25:07.376Z,101906.35
2023-02-09T01:27:37.832Z,101898.54
2023-02-09T01:30:07.066Z,101897.32
2023-02-09T01:32:37.106Z,101893.36
2023-02-09T01:35:06.204Z,101887.77
2023-02-09T01:37:35.521Z,101882.05
2023-02-09T01:40:04.773Z,101870.38
2023-02-09T01:42:34.132Z,101865.73
2023-02-09T01:45:15.949Z,101865.58
2023-02-09T01:47:47.367Z,101865.80
2023-02-09T01:50:16.269Z,101857.86
2023-02-09T01:52:45.217Z,101852.54
2023-02-09T01:55:15.375Z,101854.54
2023-02-09T01:57:48.369Z,101853.88
2023-02-09T02:00:18.936Z,101851.80
2023-02-09T02:02:56.820Z,101848.17
2023-02-09T02:05:25.620Z,101841.90
2023-02-09T02:08:08.735Z,101841.91
2023-02-09T02:10:36.749Z,101841.21
2023-02-09T02:13:04.836Z,101838.61
2023-02-09T02:16:07.370Z,101834.44
2023-02-09T02:18:48.275Z,101835.20
2023-02-09T02:21:36.651Z,101834.92
2023-02-09T02:24:35.376Z,101829.75
2023-02-09T02:27:13.983Z,101827.92
2023-02-09T02:30:06.767Z,101829.75
2023-02-09T02:32:47.141Z,101832.09
2023-02-09T02:35:38.191Z,101825.38
2023-02-09T02:38:33.342Z,101822.67
2023-02-09T02:41:14.852Z,101819.22
2023-02-09T02:43:55.350Z,101815.27
2023-02-09T02:46:28.370Z,101816.21
2023-02-09T02:49:08.666Z,101814.72
2023-02-09T02:51:39.811Z,101815.49
2023-02-09T02:54:19.996Z,101814.15
2023-02-09T02:56:51.357Z,101814.38
2023-02-09T02:59:22.661Z,101817.17
2023-02-09T03:01:57.767Z,101818.11
2023-02-09T03:04:27.419Z,101821.86
2023-02-09T03:06:56.332Z,101823.84
2023-02-09T03:09:25.298Z,101826.52
2023-02-09T03:12:33.659Z,101828.80
2023-02-09T03:15:05.479Z,101827.17
2023-02-09T03:18:04.673Z,101825.13
2023-02-09T03:20:44.356Z,101821.36
2023-02-09T03:23:31.171Z,101820.38
2023-02-09T03:26:04.060Z,101817.85
2023-02-09T03:28:35.558Z,101815.69
2023-02-09T03:31:04.609Z,101811.57
2023-02-09T03:33:34.640Z,101807.80
2023-02-09T03:36:03.641Z,101804.54
2023-02-09T03:38:32.427Z,101805.10
2023-02-09T03:41:01.162Z,101795.11
2023-02-09T03:43:48.387Z,101792.17
2023-02-09T03:46:17.071Z,101789.41
2023-02-09T03:48:45.773Z,101784.54
2023-02-09T03:51:14.332Z,101786.94
2023-02-09T03:53:42.956Z,101782.56
2023-02-09T03:56:11.932Z,101781.33
2023-02-09T03:58:40.769Z,101785.45
2023-02-09T04:01:10.675Z,101791.36
2023-02-09T04:03:40.261Z,101792.56
2023-02-09T04:06:10.272Z,101794.44
2023-02-09T04:08:39.057Z,101791.12
2023-02-09T04:11:10.328Z,101790.77
2023-02-09T04:13:40.028Z,101792.53
2023-02-09T04:16:09.187Z,101795.16
2023-02-09T04:18:38.480Z,101787.38
2023-02-09T04:21:07.548Z,101789.17
2023-02-09T04:23:36.838Z,101790.63
2023-02-09T04:26:05.415Z,101789.80
2023-02-09T04:28:34.244Z,101795.09
2023-02-09T04:31:03.118Z,101797.05
2023-02-09T04:33:33.064Z,101801.41
2023-02-09T04:36:01.876Z,101805.08
2023-02-09T04:38:30.905Z,101803.66
2023-02-09T04:41:00.399Z,101801.89
2023-02-09T04:43:29.461Z,101800.63
2023-02-09T04:45:58.408Z,101801.51
2023-02-09T04:48:27.935Z,101805.57
2023-02-09T04:50:56.793Z,101808.63
2023-02-09T04:53:25.902Z,101809.98
2023-02-09T04:55:54.533Z,101811.13
2023-02-09T04:58:42.933Z,101810.20
2023-02-09T05:01:13.123Z,101812.34
2023-02-09T05:03:43.048Z,101813.31
2023-02-09T05:06:11.638Z,101817.90
2023-02-09T05:08:40.295Z,101817.95
2023-02-09T05:11:09.297Z,101821.45
2023-02-09T05:13:38.466Z,101817.80
2023-02-09T05:16:08.470Z,101822.46
2023-02-09T05:18:37.409Z,101821.59
2023-02-09T05:21:06.066Z,101820.97
2023-02-09T05:23:35.920Z,101815.32
2023-02-09T05:26:04.714Z,101812.10
2023-02-09T05:28:33.470Z,101812.03
2023-02-09T05:31:02.562Z,101811.95
2023-02-09T05:33:31.041Z,101806.96
2023-02-09T05:35:59.663Z,101808.00
2023-02-09T05:38:28.275Z,101810.15
2023-02-09T05:40:56.937Z,101810.55
2023-02-09T05:43:25.418Z,101807.94
2023-02-09T05:45:54.559Z,101807.95
2023-02-09T05:48:23.313Z,101806.14
2023-02-09T05:50:52.210Z,101803.09
2023-02-09T05:53:20.944Z,101797.63
2023-02-09T05:55:51.166Z,101793.02
2023-02-09T05:58:20.452Z,101792.41
2023-02-09T06:00:50.185Z,101785.43
2023-02-09T06:03:19.058Z,101784.19
2023-02-09T06:05:48.483Z,101782.63
2023-02-09T06:08:17.747Z,101782.95
2023-02-09T06:10:48.513Z,101775.73
2023-02-09T06:13:17.648Z,101770.09
2023-02-09T06:15:46.276Z,101767.05
2023-02-09T06:18:15.065Z,101763.03
2023-02-09T06:20:44.427Z,101759.04
2023-02-09T06:23:14.496Z,101756.58
2023-02-09T06:25:43.458Z,101759.70
2023-02-09T06:28:15.421Z,101752.20
2023-02-09T06:30:50.111Z,101745.66
2023-02-09T06:33:22.884Z,101745.04
2023-02-09T06:35:57.224Z,101738.77
2023-02-09T06:38:26.783Z,101737.79
2023-02-09T06:40:55.799Z,101732.94
2023-02-09T06:43:25.679Z,101734.56
2023-02-09T06:45:57.922Z,101727.08
2023-02-09T06:48:26.737Z,101721.52
2023-02-09T06:50:56.007Z,101714.12
2023-02-09T06:53:24.668Z,101708.39
2023-02-09T06:55:53.329Z,101701.19
2023-02-09T06:58:23.610Z,101695.41
2023-02-09T07:00:52.238Z,101690.59
2023-02-09T07:03:21.242Z,101690.69
2023-02-09T07:05:50.085Z,101679.50
2023-02-09T07:08:18.859Z,101675.51
2023-02-09T07:10:48.904Z,101672.48
2023-02-09T07:13:17.761Z,101668.69
2023-02-09T07:15:55.066Z,101661.79
2023-02-09T07:18:24.758Z,101666.17
2023-02-09T07:20:55.421Z,101668.06
2023-02-09T07:23:24.430Z,101664.88
2023-02-09T07:25:53.518Z,101665.31
2023-02-09T07:28:22.346Z,101667.02
2023-02-09T07:30:52.738Z,101671.90
2023-02-09T07:33:21.800Z,101666.30
2023-02-09T07:35:50.435Z,101663.25
2023-02-09T07:38:23.799Z,101653.62
2023-02-09T07:40:52.360Z,101644.44
2023-02-09T07:43:21.341Z,101638.24
2023-02-09T07:45:49.950Z,101630.30
2023-02-09T07:48:18.637Z,101626.02
2023-02-09T07:50:50.935Z,101620.90
2023-02-09T07:53:20.948Z,101615.80
2023-02-09T07:55:50.050Z,101613.48
2023-02-09T07:58:20.277Z,101606.48
2023-02-09T08:00:49.941Z,101599.44
2023-02-09T08:03:20.075Z,101599.09
2023-02-09T08:05:56.294Z,101598.08
2023-02-09T08:08:26.181Z,101601.66
2023-02-09T08:10:55.078Z,101606.63
2023-02-09T08:13:24.488Z,101610.94
2023-02-09T08:15:59.010Z,101607.18
2023-02-09T08:18:40.107Z,101610.06
2023-02-09T08:21:10.433Z,101602.13
2023-02-09T08:23:40.460Z,101585.22
2023-02-09T08:26:12.104Z,101588.48
2023-02-09T08:28:45.676Z,101600.07
2023-02-09T08:31:16.179Z,101614.32
2023-02-09T08:33:48.096Z,101624.45
2023-02-09T08:36:17.461Z,101642.48
2023-02-09T08:38:46.061Z,101654.84
2023-02-09T08:41:15.788Z,101668.38
2023-02-09T08:43:49.639Z,101677.40
2023-02-09T08:46:19.550Z,101697.15
2023-02-09T08:48:49.441Z,101724.83
2023-02-09T08:51:18.529Z,101758.77
2023-02-09T08:53:52.673Z,101788.63
2023-02-09T08:56:22.242Z,101812.45
2023-02-09T08:58:51.870Z,101842.12
2023-02-09T09:01:21.480Z,101874.04
2023-02-09T09:03:50.538Z,101900.35
2023-02-09T09:06:19.548Z,101920.17
2023-02-09T09:08:48.197Z,101943.67
2023-02-09T09:11:17.565Z,101976.04
2023-02-09T09:13:46.783Z,102009.14
2023-02-09T09:16:18.445Z,102038.08
2023-02-09T09:18:48.055Z,102062.98
2023-02-09T09:21:18.134Z,102088.33
2023-02-09T09:23:47.158Z,102115.08
2023-02-09T09:26:16.743Z,102149.85
2023-02-09T09:28:45.217Z,102190.40
2023-02-09T09:31:16.792Z,102224.98
2023-02-09T09:33:45.914Z,102258.34
2023-02-09T09:36:15.068Z,102285.09
2023-02-09T09:38:43.985Z,102320.49
2023-02-09T09:41:25.122Z,102349.61
2023-02-09T09:43:54.029Z,102372.95
2023-02-09T09:46:33.926Z,102392.00
2023-02-09T09:49:02.590Z,102414.31
2023-02-09T09:51:45.440Z,102430.50
2023-02-09T09:54:22.538Z,102443.70
2023-02-09T09:56:52.978Z,102453.21
2023-02-09T09:59:25.844Z,102470.61
2023-02-09T10:01:54.763Z,102491.99
2023-02-09T10:04:23.996Z,102506.20
2023-02-09T10:07:02.306Z,102521.45
2023-02-09T10:09:51.281Z,102533.34
2023-02-09T10:12:25.501Z,102538.88
2023-02-09T10:14:54.821Z,102539.45
2023-02-09T10:17:24.446Z,102548.30
2023-02-09T10:20:08.879Z,102555.96
2023-02-09T10:22:38.909Z,102565.88
2023-02-09T10:25:53.410Z,102556.32
2023-02-09T10:28:25.420Z,102560.80
2023-02-09T10:30:58.906Z,102560.85
2023-02-09T10:33:29.980Z,102562.03
2023-02-09T10:36:51.423Z,102568.63
2023-02-09T10:39:23.464Z,102573.64
2023-02-09T10:41:54.566Z,102569.85
2023-02-09T10:44:29.569Z,102574.88
2023-02-09T10:47:25.780Z,102585.69
2023-02-09T10:50:02.935Z,102586.86
2023-02-09T10:52:37.647Z,102585.84
2023-02-09T10:55:17.850Z,102581.70
2023-02-09T10:57:48.188Z,102583.60
2023-02-09T11:00:18.193Z,102581.12
2023-02-09T11:02:57.273Z,102580.83
2023-02-09T11:05:29.572Z,102582.96
2023-02-09T11:08:13.695Z,102579.33
2023-02-09T11:10:50.398Z,102582.72
2023-02-09T11:13:25.885Z,102588.19
2023-02-09T11:16:15.885Z,102587.96
2023-02-09T11:18:49.978Z,102583.31
2023-02-09T11:21:33.047Z,102572.91
2023-02-09T11:24:26.330Z,102562.79
2023-02-09T11:26:58.907Z,102554.19
2023-02-09T11:29:42.102Z,102550.66
2023-02-09T11:32:20.978Z,102539.56
2023-02-09T11:34:50.122Z,102532.00
2023-02-09T11:37:37.434Z,102521.98
2023-02-09T11:40:15.797Z,102521.46
2023-02-09T11:42:58.238Z,102518.39
2023-02-09T11:45:30.388Z,102516.29
2023-02-09T11:48:26.341Z,102517.89
2023-02-09T11:51:00.858Z,102520.34
2023-02-09T11:53:41.919Z,102517.99
2023-02-09T11:56:15.380Z,102517.36
2023-02-09T11:59:06.386Z,102524.11
2023-02-09T12:01:38.781Z,102531.35
2023-02-09T12:04:20.075Z,102534.90
2023-02-09T12:06:51.399Z,102543.45
2023-02-09T12:09:42.328Z,102552.94
2023-02-09T12:12:20.208Z,102563.27
2023-02-09T12:15:01.413Z,102568.70
2023-02-09T12:17:51.925Z,102565.55
2023-02-09T12:20:36.678Z,102557.47
2023-02-09T12:23:15.017Z,102555.17
2023-02-09T12:25:51.510Z,102552.23
2023-02-09T12:28:29.863Z,102556.80
2023-02-09T12:30:58.756Z,102562.55
2023-02-09T12:33:30.108Z,102567.40
2023-02-09T12:36:10.380Z,102569.58
2023-02-09T12:38:56.821Z,102582.48
2023-02-09T12:41:34.164Z,102591.19
2023-02-09T12:44:12.156Z,102589.75
2023-02-09T12:46:53.124Z,102580.79
2023-02-09T12:49:28.654Z,102576.70
2023-02-09T12:52:00.602Z,102568.42
2023-02-09T12:54:41.639Z,102564.48
2023-02-09T12:57:16.819Z,102559.54
2023-02-09T12:59:55.488Z,102560.11
2023-02-09T13:02:25.446Z,102575.27
2023-02-09T13:04:56.739Z,102587.56
2023-02-09T13:07:54.612Z,102594.20
2023-02-09T13:10:38.248Z,102592.94
2023-02-09T13:13:06.810Z,102590.58
2023-02-09T13:15:48.105Z,102586.67
2023-02-09T13:18:20.419Z,102581.28
2023-02-09T13:21:04.660Z,102575.70
2023-02-09T13:23:49.374Z,102574.64
2023-02-09T13:26:19.460Z,102575.96
2023-02-09T13:28:47.899Z,102579.98
2023-02-09T13:31:30.617Z,102577.69
2023-02-09T13:34:02.631Z,102582.34
2023-02-09T13:36:42.831Z,102573.11
2023-02-09T13:39:21.443Z,102571.89
2023-02-09T13:41:53.912Z,102572.48
2023-02-09T13:44:27.937Z,102577.14
2023-02-09T13:47:01.307Z,102580.30
2023-02-09T13:49:30.173Z,102592.80
2023-02-09T13:52:16.134Z,102593.94
2023-02-09T13:54:45.414Z,102596.86
2023-02-09T13:57:17.093Z,102596.86
2023-02-09T13:59:45.831Z,102595.75
2023-02-09T14:02:23.031Z,102596.53
2023-02-09T14:04:55.013Z,102601.35
2023-02-09T14:07:24.975Z,102609.09
2023-02-09T14:10:01.701Z,102610.85
2023-02-09T14:12:52.180Z,102609.14
2023-02-09T14:15:42.952Z,102607.79
2023-02-09T14:18:24.713Z,102609.23
2023-02-09T14:21:03.390Z,102610.58
2023-02-09T14:23:35.442Z,102611.52
2023-02-09T14:26:15.498Z,102620.28
2023-02-09T14:29:05.662Z,102625.20
2023-02-09T14:31:34.668Z,102624.42
2023-02-09T14:34:03.230Z,102625.50
2023-02-09T14:36:33.775Z,102624.55
2023-02-09T14:39:22.024Z,102620.95
2023-02-09T14:42:10.883Z,102609.31
2023-02-09T14:44:51.584Z,102605.80
2023-02-09T14:47:31.022Z,102600.73
2023-02-09T14:49:59.889Z,102599.59
2023-02-09T14:52:31.595Z,102599.76
2023-02-09T14:55:04.825Z,102603.45
2023-02-09T14:57:36.339Z,102598.75
2023-02-09T15:00:15.631Z,102596.52
2023-02-09T15:02:44.850Z,102598.09
2023-02-09T15:05:14.028Z,102589.73
2023-02-09T15:07:50.574Z,102583.22
2023-02-09T15:10:28.914Z,102580.48
2023-02-09T15:12:58.629Z,102575.83
2023-02-09T15:15:27.519Z,102573.67
2023-02-09T15:17:58.605Z,102567.02
2023-02-09T15:20:28.749Z,102565.47
2023-02-09T15:22:57.263Z,102560.02
2023-02-09T15:25:26.174Z,102557.85
2023-02-09T15:27:59.257Z,102560.80
2023-02-09T15:30:32.288Z,102556.92
2023-02-09T15:33:01.298Z,102559.80
2023-02-09T15:35:30.031Z,102557.31
2023-02-09T15:37:59.822Z,102552.42
2023-02-09T15:40:49.795Z,102551.23
2023-02-09T15:43:39.279Z,102548.97
2023-02-09T15:46:13.590Z,102544.87
2023-02-09T15:48:42.569Z,102544.89
2023-02-09T15:51:11.228Z,102537.18
2023-02-09T15:53:40.286Z,102533.25
2023-02-09T15:56:09.456Z,102531.71
2023-02-09T15:58:45.148Z,102535.28
2023-02-09T16:01:16.906Z,102534.92
2023-02-09T16:03:45.870Z,102532.06
2023-02-09T16:06:24.975Z,102526.15
2023-02-09T16:08:53.960Z,102519.27
2023-02-09T16:11:27.417Z,102521.33
2023-02-09T16:13:56.190Z,102518.08
2023-02-09T16:16:27.945Z,102519.09
2023-02-09T16:18:56.533Z,102517.86
2023-02-09T16:21:28.452Z,102516.52
2023-02-09T16:23:59.276Z,102522.09
2023-02-09T16:26:28.674Z,102522.17
2023-02-09T16:28:57.412Z,102521.61
2023-02-09T16:31:26.494Z,102522.16
2023-02-09T16:33:55.792Z,102523.36
2023-02-09T16:36:25.187Z,102524.61
2023-02-09T16:38:54.814Z,102526.13
2023-02-09T16:41:42.733Z,102526.66
2023-02-09T16:44:20.266Z,102527.11
2023-02-09T16:46:51.084Z,102527.59
2023-02-09T16:49:40.452Z,102528.04
2023-02-09T16:52:22.047Z,102526.70
2023-02-09T16:54:53.548Z,102525.34
2023-02-09T16:57:23.600Z,102526.35
2023-02-09T16:59:52.798Z,102530.93
2023-02-09T17:02:37.078Z,102530.06
2023-02-09T17:05:22.109Z,102532.38
2023-02-09T17:07:55.163Z,102529.73
2023-02-09T17:10:26.492Z,102523.94
2023-02-09T17:12:55.108Z,102519.63
2023-02-09T17:15:30.454Z,102520.98
2023-02-09T17:18:02.707Z,102516.60
2023-02-09T17:20:37.585Z,102511.94
2023-02-09T17:23:06.170Z,102505.80
2023-02-09T17:25:36.404Z,102509.84
2023-02-09T17:28:05.879Z,102509.14
2023-02-09T17:30:36.616Z,102506.79
2023-02-09T17:33:07.605Z,102500.92
2023-02-09T17:38:31.514Z,102504.48
2023-02-09T17:41:02.637Z,102503.44
2023-02-09T17:43:31.922Z,102503.49
2023-02-09T17:46:01.393Z,102498.79
2023-02-09T17:48:30.424Z,102494.21
2023-02-09T17:51:00.776Z,102499.88
2023-02-09T17:53:32.808Z,102497.61
2023-02-09T17:56:02.803Z,102498.67
2023-02-09T17:58:31.739Z,102500.04
2023-02-09T18:01:01.190Z,102492.90
2023-02-09T18:03:30.679Z,102493.64
2023-02-09T18:06:01.957Z,102496.13
2023-02-09T18:08:31.680Z,102494.73
2023-02-09T18:11:01.636Z,102488.80
2023-02-09T18:13:30.637Z,102488.32
2023-02-09T18:16:03.371Z,102487.84
2023-02-09T18:18:33.092Z,102488.67
2023-02-09T18:21:02.111Z,102485.20
2023-02-09T18:23:31.199Z,102478.40
2023-02-09T18:25:59.837Z,102483.71
2023-02-09T18:28:29.022Z,102478.27
2023-02-09T18:30:58.245Z,102481.59
2023-02-09T18:33:27.595Z,102479.78
2023-02-09T18:35:56.348Z,102483.31
2023-02-09T18:38:25.292Z,102481.52
2023-02-09T18:40:54.226Z,102481.88
2023-02-09T18:43:23.855Z,102471.80
2023-02-09T18:45:53.082Z,102472.12
2023-02-09T18:48:22.829Z,102471.77
2023-02-09T18:50:51.734Z,102468.18
2023-02-09T18:53:22.622Z,102467.59
2023-02-09T18:55:52.569Z,102467.97
2023-02-09T18:58:21.446Z,102462.11
2023-02-09T19:00:50.525Z,102461.27
2023-02-09T19:03:20.394Z,102456.77
2023-02-09T19:05:49.444Z,102452.67
2023-02-09T19:08:18.471Z,102446.63
2023-02-09T19:10:47.709Z,102444.45
2023-02-09T19:13:16.609Z,102440.55
2023-02-09T19:15:46.329Z,102441.73
2023-02-09T19:18:20.449Z,102437.77
2023-02-09T19:20:49.490Z,102432.92
2023-02-09T19:23:18.230Z,102430.08
2023-02-09T19:25:47.996Z,102430.23
2023-02-09T19:28:17.109Z,102423.42
2023-02-09T19:30:46.400Z,102425.06
2023-02-09T19:33:15.666Z,102422.90
2023-02-09T19:35:45.623Z,102418.15
2023-02-09T19:38:14.990Z,102417.68
2023-02-09T19:40:44.146Z,102414.02
2023-02-09T19:43:13.562Z,102408.80
2023-02-09T19:45:42.345Z,102405.68
2023-02-09T19:48:11.502Z,102406.91
2023-02-09T19:50:40.274Z,102400.88
2023-02-09T19:53:09.411Z,102398.10
2023-02-09T19:55:39.364Z,102396.33
2023-02-09T19:58:08.496Z,102393.27
2023-02-09T20:00:38.458Z,102393.87
2023-02-09T20:03:07.488Z,102394.61
2023-02-09T20:05:39.900Z,102393.34
2023-02-09T20:08:09.808Z,102387.40
2023-02-09T20:10:39.033Z,102382.73
2023-02-09T20:13:08.728Z,102378.56
2023-02-09T20:15:42.418Z,102374.27
2023-02-09T20:18:13.479Z,102372.09
2023-02-09T20:20:44.889Z,102372.41
2023-02-09T20:23:15.852Z,102370.31
2023-02-09T20:25:44.907Z,102368.31
2023-02-09T20:28:13.752Z,102370.13
2023-02-09T20:30:46.189Z,102368.83
2023-02-09T20:33:17.597Z,102369.13
2023-02-09T20:35:46.413Z,102373.33
2023-02-09T20:38:17.150Z,102371.61
2023-02-09T20:40:46.074Z,102370.72
2023-02-09T20:43:34.181Z,102372.70
2023-02-09T20:46:26.885Z,102368.67
2023-02-09T20:48:55.623Z,102368.89
2023-02-09T20:51:25.797Z,102359.08
2023-02-09T20:53:54.685Z,102358.08
2023-02-09T20:56:24.034Z,102356.45
2023-02-09T20:58:52.999Z,102356.00
2023-02-09T21:01:23.515Z,102352.73
2023-02-09T21:03:56.957Z,102352.39
2023-02-09T21:06:26.726Z,102354.56
2023-02-09T21:08:55.792Z,102356.49
2023-02-09T21:11:29.204Z,102353.40
2023-02-09T21:13:58.789Z,102351.27
2023-02-09T21:16:28.219Z,102349.49
2023-02-09T21:18:57.859Z,102348.86
2023-02-09T21:21:27.643Z,102346.77
2023-02-09T21:23:56.945Z,102344.52
2023-02-09T21:26:25.720Z,102346.79
2023-02-09T21:28:56.370Z,102345.92
2023-02-09T21:31:26.711Z,102346.58
2023-02-09T21:33:56.689Z,102347.45
2023-02-09T21:36:25.722Z,102344.41
2023-02-09T21:38:55.185Z,102344.41
2023-02-09T21:41:43.817Z,102343.20
2023-02-09T21:44:14.104Z,102340.80
2023-02-09T21:46:43.005Z,102333.40
2023-02-09T21:49:12.868Z,102327.09
2023-02-09T21:51:42.430Z,102322.38
2023-02-09T21:54:15.441Z,102324.73
2023-02-09T21:56:44.745Z,102323.57
2023-02-09T21:59:13.381Z,102317.73
2023-02-09T22:01:43.415Z,102312.89
2023-02-09T22:04:11.898Z,102313.69
2023-02-09T22:06:41.982Z,102303.75
2023-02-09T22:09:10.765Z,102298.89
2023-02-09T22:11:40.465Z,102293.00
2023-02-09T22:14:09.489Z,102292.45
2023-02-09T22:16:38.358Z,102284.29
2023-02-09T22:19:07.489Z,102283.48
2023-02-09T22:21:36.327Z,102283.49
2023-02-09T22:24:05.477Z,102281.14
2023-02-09T22:26:35.276Z,102276.02
2023-02-09T22:29:03.974Z,102274.11
2023-02-09T22:31:32.874Z,102265.83
2023-02-09T22:34:01.852Z,102267.02
2023-02-09T22:36:31.079Z,102261.92
2023-02-09T22:39:01.662Z,102256.30
2023-02-09T22:41:30.700Z,102260.34
2023-02-09T22:44:01.922Z,102256.31
2023-02-09T22:46:32.920Z,102250.16
2023-02-09T22:49:05.800Z,102240.63
2023-02-09T22:51:35.035Z,102229.92
2023-02-09T22:54:04.443Z,102225.90
2023-02-09T22:56:33.558Z,102224.13
2023-02-09T22:59:02.428Z,102220.11
2023-02-09T23:01:31.262Z,102218.11
2023-02-09T23:04:00.317Z,102221.09
2023-02-09T23:06:30.008Z,102217.59
2023-02-09T23:09:00.951Z,102213.70
2023-02-09T23:11:30.333Z,102213.59
2023-02-09T23:14:14.539Z,102206.77
2023-02-09T23:16:45.314Z,102208.41
2023-02-09T23:19:19.540Z,102206.89
2023-02-09T23:21:49.425Z,102202.61
2023-02-09T23:24:21.862Z,102197.91
2023-02-09T23:26:51.132Z,102195.23
2023-02-09T23:29:19.685Z,102194.56
2023-02-09T23:31:48.517Z,102192.02
2023-02-09T23:34:18.915Z,102195.48
2023-02-09T23:36:47.601Z,102186.95
2023-02-09T23:39:18.972Z,102184.14
2023-02-09T23:41:48.123Z,102181.38
2023-02-09T23:44:16.665Z,102184.89
2023-02-09T23:46:45.657Z,102184.04
2023-02-09T23:49:14.538Z,102178.33
2023-02-09T23:51:44.314Z,102178.71
2023-02-09T23:54:12.740Z,102175.40
2023-02-09T23:56:46.471Z,102161.67
2023-02-09T23:59:15.590Z,102156.61
